createdAt,value
2022-11-28T19:18:39.065Z,93.93
2022-11-28T19:19:38.545Z,93.82
2022-11-28T19:20:38.870Z,93.82
2022-11-28T19:21:38.112Z,94.03
2022-11-28T19:22:42.764Z,94.03
2022-11-28T19:23:39.206Z,94.13
2022-11-28T19:24:38.402Z,94.13
2022-11-28T19:25:38.514Z,94.13
2022-11-28T19:26:38.111Z,94.24
2022-11-28T19:27:38.042Z,94.24
2022-11-28T19:28:39.411Z,94.13
2022-11-28T19:29:38.310Z,94.34
2022-11-28T19:30:38.381Z,94.34
2022-11-28T19:31:38.072Z,94.13
2022-11-28T19:32:38.270Z,94.03
2022-11-28T19:33:39.138Z,94.03
2022-11-28T19:34:37.917Z,94.03
2022-11-28T19:35:37.941Z,93.93
2022-11-28T19:36:38.183Z,94.03
2022-11-28T19:37:38.810Z,93.93
2022-11-28T19:38:38.791Z,93.93
2022-11-28T19:39:38.631Z,93.93
2022-11-28T19:40:38.817Z,94.03
2022-11-28T19:41:39.608Z,94.03
2022-11-28T19:42:37.775Z,94.03
2022-11-28T19:43:38.575Z,94.13
2022-11-28T19:44:39.078Z,94.13
2022-11-28T19:45:38.879Z,94.03
2022-11-28T19:46:39.624Z,94.03
2022-11-28T19:47:37.729Z,94.13
2022-11-28T19:48:37.751Z,94.24
2022-11-28T19:49:37.717Z,94.13
2022-11-28T19:50:46.003Z,94.03
2022-11-28T19:51:38.055Z,94.03
2022-11-28T19:52:38.554Z,93.82
2022-11-28T19:53:37.987Z,93.82
2022-11-28T19:54:37.685Z,93.82
2022-11-28T19:55:38.635Z,94.03
2022-11-28T19:56:37.669Z,93.93
2022-11-28T19:57:38.026Z,94.03
2022-11-28T19:58:38.020Z,93.93
2022-11-28T19:59:37.566Z,93.82
2022-11-28T20:00:42.675Z,93.82
2022-11-28T20:01:39.078Z,93.93
2022-11-28T20:02:37.951Z,94.03
2022-11-28T20:03:37.961Z,93.82
2022-11-28T20:04:38.504Z,93.93
2022-11-28T20:05:37.587Z,93.93
2022-11-28T20:06:38.484Z,94.03
2022-11-28T20:07:37.613Z,93.93
2022-11-28T20:08:37.467Z,93.93
2022-11-28T20:09:37.527Z,93.93
2022-11-28T20:10:37.473Z,94.03
2022-11-28T20:11:37.755Z,93.93
2022-11-28T20:12:38.445Z,94.03
2022-11-28T20:13:37.465Z,94.03
2022-11-28T20:14:37.454Z,93.93
2022-11-28T20:15:38.340Z,93.82
2022-11-28T20:16:37.850Z,93.93
2022-11-28T20:17:38.318Z,93.93
2022-11-28T20:18:40.846Z,93.93
2022-11-28T20:19:37.867Z,94.03
2022-11-28T20:20:39.853Z,94.13
2022-11-28T20:21:38.004Z,94.24
2022-11-28T20:22:38.029Z,94.34
2022-11-28T20:23:38.317Z,94.45
2022-11-28T20:24:38.311Z,94.55
2022-11-28T20:25:37.630Z,94.55
2022-11-28T20:26:38.430Z,94.55
2022-11-28T20:27:38.173Z,94.55
2022-11-28T20:28:39.854Z,94.55
2022-11-28T20:29:39.176Z,94.45
2022-11-28T20:30:38.611Z,94.61
2022-11-28T20:31:39.828Z,94.61
2022-11-28T20:32:37.751Z,94.40
2022-11-28T20:33:37.596Z,94.20
2022-11-28T20:34:41.270Z,94.20
2022-11-28T20:35:38.693Z,94.20
2022-11-28T20:36:40.484Z,94.20
2022-11-28T20:37:37.542Z,94.09
2022-11-28T20:38:37.579Z,93.99
2022-11-28T20:39:37.739Z,93.99
2022-11-28T20:40:41.636Z,93.88
2022-11-28T20:41:39.014Z,93.88
2022-11-28T20:42:39.992Z,94.03
2022-11-28T20:43:37.442Z,93.99
2022-11-28T20:44:38.440Z,94.03
2022-11-28T20:45:38.770Z,94.13
2022-11-28T20:46:37.528Z,94.13
2022-11-28T20:47:37.970Z,94.24
2022-11-28T20:48:37.340Z,94.13
2022-11-28T20:49:38.439Z,94.13
2022-11-28T20:50:44.128Z,94.24
2022-11-28T20:51:37.586Z,94.24
2022-11-28T20:52:38.120Z,94.24
2022-11-28T20:53:40.280Z,94.24
2022-11-28T20:54:41.852Z,94.13
2022-11-28T20:55:39.791Z,94.13
2022-11-28T20:57:12.819Z,94.24
2022-11-28T20:57:40.027Z,94.24
2022-11-28T20:58:37.630Z,94.13
2022-11-28T20:59:38.684Z,94.13
2022-11-28T21:00:51.243Z,94.24
2022-11-28T21:01:38.198Z,94.13
2022-11-28T21:02:38.084Z,94.24
2022-11-28T21:03:37.214Z,94.45
2022-11-28T21:04:38.192Z,94.45
2022-11-28T21:05:40.651Z,94.34
2022-11-28T21:06:37.020Z,94.34
2022-11-28T21:07:38.137Z,94.34
2022-11-28T21:08:40.686Z,94.45
2022-11-28T21:09:43.011Z,94.45
2022-11-28T21:10:37.855Z,94.55
2022-11-28T21:11:56.329Z,94.55
2022-11-28T21:12:39.689Z,94.45
2022-11-28T21:13:37.688Z,94.55
2022-11-28T21:14:37.976Z,94.55
2022-11-28T21:15:39.381Z,94.55
2022-11-28T21:16:42.800Z,94.55
2022-11-28T21:17:38.745Z,94.55
2022-11-28T21:18:37.286Z,94.45
2022-11-28T21:19:40.080Z,94.45
2022-11-28T21:20:37.112Z,94.45
2022-11-28T21:21:37.679Z,94.45
2022-11-28T21:22:38.102Z,94.55
2022-11-28T21:23:37.030Z,94.65
2022-11-28T21:24:37.865Z,94.65
2022-11-28T21:25:38.503Z,94.65
2022-11-28T21:26:41.433Z,94.76
2022-11-28T21:27:38.443Z,94.76
2022-11-28T21:28:37.351Z,94.76
2022-11-28T21:29:36.954Z,94.65
2022-11-28T21:30:37.803Z,94.65
2022-11-28T21:31:42.350Z,94.65
2022-11-28T21:32:37.490Z,94.65
2022-11-28T21:33:37.596Z,94.65
2022-11-28T21:34:37.715Z,94.76
2022-11-28T21:35:38.013Z,94.76
2022-11-28T21:36:37.458Z,94.86
2022-11-28T21:37:37.660Z,94.96
2022-11-28T21:38:39.457Z,94.86
2022-11-28T21:39:45.334Z,94.86
2022-11-28T21:40:45.752Z,94.86
2022-11-28T21:41:38.966Z,94.96
2022-11-28T21:42:39.931Z,94.96
2022-11-28T21:43:58.439Z,94.96
2022-11-28T21:44:36.617Z,94.96
2022-11-28T21:45:37.390Z,94.76
2022-11-28T21:46:36.393Z,94.86
2022-11-28T21:47:38.100Z,94.96
2022-11-28T21:48:37.257Z,94.96
2022-11-28T21:49:38.199Z,95.07
2022-11-28T21:50:43.344Z,95.07
2022-11-28T21:51:36.760Z,95.17
2022-11-28T21:52:37.000Z,95.17
2022-11-28T21:53:41.052Z,95.28
2022-11-28T21:54:37.585Z,95.28
2022-11-28T21:55:37.563Z,95.28
2022-11-28T21:56:36.904Z,95.28
2022-11-28T21:57:36.327Z,95.28
2022-11-28T21:58:37.306Z,95.28
2022-11-28T21:59:38.321Z,95.17
2022-11-28T22:00:53.139Z,95.17
2022-11-28T22:01:40.648Z,95.17
2022-11-28T22:02:37.813Z,95.28
2022-11-28T22:03:37.291Z,95.28
2022-11-28T22:04:36.351Z,95.28
2022-11-28T22:05:37.348Z,95.28
2022-11-28T22:06:38.241Z,95.28
2022-11-28T22:07:36.696Z,95.42
2022-11-28T22:08:37.308Z,95.38
2022-11-28T22:09:37.301Z,95.42
2022-11-28T22:10:37.747Z,95.48
2022-11-28T22:11:37.210Z,95.42
2022-11-28T22:12:39.206Z,95.42
2022-11-28T22:13:39.020Z,95.38
2022-11-28T22:14:41.306Z,95.42
2022-11-28T22:15:36.103Z,95.42
2022-11-28T22:16:36.889Z,95.42
2022-11-28T22:17:38.672Z,95.48
2022-11-28T22:18:36.985Z,95.42
2022-11-28T22:19:36.223Z,95.63
2022-11-28T22:20:41.745Z,95.63
2022-11-28T22:21:56.325Z,95.53
2022-11-28T22:22:38.212Z,95.53
2022-11-28T22:23:38.916Z,95.42
2022-11-28T22:24:38.860Z,95.42
2022-11-28T22:25:38.103Z,95.42
2022-11-28T22:26:38.011Z,95.42
2022-11-28T22:27:43.244Z,95.42
2022-11-28T22:28:35.815Z,95.53
2022-11-28T22:29:43.465Z,95.53
2022-11-28T22:30:36.885Z,95.53
2022-11-28T22:31:38.036Z,95.53
2022-11-28T22:32:37.289Z,95.53
2022-11-28T22:33:37.744Z,95.42
2022-11-28T22:34:39.953Z,95.53
2022-11-28T22:35:38.517Z,95.53
2022-11-28T22:36:36.048Z,95.63
2022-11-28T22:37:36.793Z,95.63
2022-11-28T22:38:36.076Z,95.73
2022-11-28T22:39:35.781Z,95.73
2022-11-28T22:40:36.157Z,95.73
2022-11-28T22:41:36.633Z,95.73
2022-11-28T22:42:46.547Z,95.73
2022-11-28T22:43:37.504Z,95.63
2022-11-28T22:44:36.703Z,95.63
2022-11-28T22:45:36.934Z,95.63
2022-11-28T22:46:43.031Z,95.73
2022-11-28T22:47:37.874Z,95.73
2022-11-28T22:48:36.201Z,95.73
2022-11-28T22:49:36.300Z,95.63
2022-11-28T22:50:40.047Z,95.63
2022-11-28T22:51:37.512Z,95.73
2022-11-28T22:52:37.096Z,95.73
2022-11-28T22:53:35.545Z,95.73
2022-11-28T22:54:36.536Z,95.73
2022-11-28T22:55:35.555Z,95.73
2022-11-28T22:56:36.593Z,95.73
2022-11-28T22:57:39.729Z,95.73
2022-11-28T22:58:42.443Z,95.84
2022-11-28T22:59:35.881Z,95.84
2022-11-28T23:00:36.593Z,95.94
2022-11-28T23:01:36.559Z,95.94
2022-11-28T23:02:37.681Z,95.94
2022-11-28T23:03:35.386Z,95.94
2022-11-28T23:04:37.639Z,95.94
2022-11-28T23:05:35.388Z,95.94
2022-11-28T23:06:35.715Z,95.94
2022-11-28T23:07:36.502Z,95.94
2022-11-28T23:08:37.802Z,95.94
2022-11-28T23:09:36.240Z,96.04
2022-11-28T23:10:36.945Z,95.94
2022-11-28T23:11:37.980Z,95.84
2022-11-28T23:12:35.995Z,95.84
2022-11-28T23:13:35.641Z,95.94
2022-11-28T23:14:36.567Z,95.89
2022-11-28T23:15:38.033Z,96.09
2022-11-28T23:16:39.968Z,96.20
2022-11-28T23:17:36.853Z,96.20
2022-11-28T23:18:36.409Z,96.25
2022-11-28T23:19:35.416Z,96.15
2022-11-28T23:20:36.185Z,96.15
2022-11-28T23:21:36.668Z,96.09
2022-11-28T23:22:41.569Z,96.09
2022-11-28T23:23:35.514Z,96.09
2022-11-28T23:24:36.128Z,95.99
2022-11-28T23:25:37.399Z,96.09
2022-11-28T23:26:37.398Z,96.09
2022-11-28T23:27:36.348Z,96.09
2022-11-28T23:28:35.892Z,96.09
2022-11-28T23:29:36.395Z,96.09
2022-11-28T23:30:35.598Z,96.09
2022-11-28T23:31:38.173Z,96.20
2022-11-28T23:32:36.354Z,96.20
2022-11-28T23:33:36.222Z,96.20
2022-11-28T23:34:35.899Z,96.20
2022-11-28T23:35:36.056Z,96.09
2022-11-28T23:36:41.845Z,96.20
2022-11-28T23:37:37.713Z,96.30
2022-11-28T23:38:34.957Z,96.30
2022-11-28T23:39:35.578Z,96.30
2022-11-28T23:40:36.041Z,96.30
2022-11-28T23:41:35.313Z,96.30
2022-11-28T23:42:39.380Z,96.30
2022-11-28T23:43:39.668Z,96.30
2022-11-28T23:44:35.068Z,96.30
2022-11-28T23:45:36.947Z,96.30
2022-11-28T23:46:36.077Z,96.30
2022-11-28T23:47:41.300Z,96.30
2022-11-28T23:48:35.698Z,96.30
2022-11-28T23:49:36.680Z,96.41
2022-11-28T23:50:35.097Z,96.41
2022-11-28T23:51:36.087Z,96.30
2022-11-28T23:52:35.918Z,96.30
2022-11-28T23:53:37.812Z,96.30
2022-11-28T23:54:35.955Z,96.30
2022-11-28T23:55:40.313Z,96.30
2022-11-28T23:56:36.379Z,96.30
2022-11-28T23:57:35.337Z,96.20
2022-11-28T23:58:35.797Z,96.30
2022-11-28T23:59:35.535Z,96.30
